Grandeur Of The Seas — C6SE3 — position and weather

sailwx.info

Track history (hours):
 
Tides and Currents Weather Stations Pressure Air Temp Water Temp Dewpoint Dewpoint Depression Visibility Wind Speed Wind Dir Waves Ship Positions

Grandeur Of The Seas

Operator: Royal Caribbean Cruises Ltd

Last reported at 2015-Jan-25 12:00 UTC. Time now 2015-Jan-26 14:32 UTC.
Position N 35°24' W 075°06'.

Type: Passenger vessel. MMSI: 311315000.

Barometer 1012.8 mb
Air temperature 6.0 ° C
Dewpoint 4.3 ° C
Water temperature 22.1 ° C

Date/timePositionNaut miles runAvg speedWind from/ knotsBaromVisibWave heightAir tempDewpointWater temp
2015-Jan-25 12:00N 35°24' W 075°06'15916.7 1012.8 6.0 4.322.1
2015-Jan-25 02:31N 37°54' W 076°09'5819.5
2015-Jan-24 23:33N 38°51' W 076°24'1616.3
2015-Jan-24 22:33N 39°07' W 076°24'1110.6
2015-Jan-24 21:33N 39°15' W 076°33'2 2.4
2015-Jan-24 20:32N 39°16' W 076°36'0 0.0
2015-Jan-24 19:32N 39°16' W 076°36'0 0.0
2015-Jan-24 18:32N 39°16' W 076°36'0 0.0
2015-Jan-24 17:32N 39°16' W 076°36'0 0.0
2015-Jan-24 16:32N 39°16' W 076°36'0 0.0
2015-Jan-24 15:32N 39°16' W 076°36'0 0.0
2015-Jan-24 14:32N 39°16' W 076°36'0 0.0
2015-Jan-24 13:32N 39°16' W 076°36'0 0.0
2015-Jan-24 12:32N 39°16' W 076°36'1 1.0
2015-Jan-24 11:33N 39°15' W 076°35'9 8.3
2015-Jan-24 10:31N 39°10' W 076°26'1212.7
2015-Jan-24 09:33N 38°58' W 076°23'75915.4
2015-Jan-22 08:17N 26°38' W 079°44'1723.0
2015-Jan-22 07:34N 26°22' W 079°45'2323.2
2015-Jan-22 06:34N 25°59' W 079°48'13 0.5
2015-Jan-21 03:33N 25°45' W 079°45'1817.8
2015-Jan-21 02:33N 25°57' W 079°31'4919.2
2015-Jan-21 00:00N 26°00' W 078°36'74 4.4 140 / 131017.3 22.017.427.5
2015-Jan-20 07:00N 25°24' W 077°24'   090 / 151018.3 20.415.026.9
2015-Jan-18 00:00N 31°18' W 076°54'27921.5 130 / 141023.0 18.413.127.0
2015-Jan-17 11:00N 35°42' W 075°06'14016.3 030 / 201026.0 6.5 4.410.0
2015-Jan-17 02:24N 37°53' W 076°09'5720.0
2015-Jan-16 23:33N 38°48' W 076°25'1817.6
2015-Jan-16 22:34N 39°06' W 076°24'1010.5
2015-Jan-16 21:33N 39°14' W 076°33'3 3.3
2015-Jan-16 20:33N 39°16' W 076°36'0 0.0
2015-Jan-16 19:33N 39°16' W 076°36'0 0.0
2015-Jan-16 18:33N 39°16' W 076°36'0 0.0
2015-Jan-16 17:33N 39°16' W 076°36'0 0.0
2015-Jan-16 16:33N 39°16' W 076°36'0 0.0
2015-Jan-16 15:30N 39°16' W 076°36'0 0.0
2015-Jan-16 14:33N 39°16' W 076°36'0 0.0
2015-Jan-16 13:33N 39°16' W 076°36'0 0.0
2015-Jan-16 12:33N 39°16' W 076°36'1 0.6
2015-Jan-16 11:34N 39°15' W 076°35'9 9.3
2015-Jan-16 10:34N 39°10' W 076°26'1312.9
2015-Jan-16 09:33N 38°57' W 076°23'1413.8
2015-Jan-16 08:34N 38°44' W 076°26'  
Track history (hours):
 
Tides and Currents Weather Stations Pressure Air Temp Water Temp Dewpoint Dewpoint Depression Visibility Wind Speed Wind Dir Waves Ship Positions

Grandeur Of The Seas

Operator: Royal Caribbean Cruises Ltd

Last reported at 2015-Jan-25 12:00 UTC. Time now 2015-Jan-26 14:32 UTC.
Position N 35°24' W 075°06'.

Type: Passenger vessel. MMSI: 311315000.

Barometer 1012.8 mb
Air temperature 6.0 ° C
Dewpoint 4.3 ° C
Water temperature 22.1 ° C

Date/timePositionNaut miles runAvg speedWind from/ knotsBaromVisibWave heightAir tempDewpointWater temp
2015-Jan-25 12:00N 35°24' W 075°06'15916.7 1012.8 6.0 4.322.1
2015-Jan-25 02:31N 37°54' W 076°09'5819.5
2015-Jan-24 23:33N 38°51' W 076°24'1616.3
2015-Jan-24 22:33N 39°07' W 076°24'1110.6
2015-Jan-24 21:33N 39°15' W 076°33'2 2.4
2015-Jan-24 20:32N 39°16' W 076°36'0 0.0
2015-Jan-24 19:32N 39°16' W 076°36'0 0.0
2015-Jan-24 18:32N 39°16' W 076°36'0 0.0
2015-Jan-24 17:32N 39°16' W 076°36'0 0.0
2015-Jan-24 16:32N 39°16' W 076°36'0 0.0
2015-Jan-24 15:32N 39°16' W 076°36'0 0.0
2015-Jan-24 14:32N 39°16' W 076°36'0 0.0
2015-Jan-24 13:32N 39°16' W 076°36'0 0.0
2015-Jan-24 12:32N 39°16' W 076°36'1 1.0
2015-Jan-24 11:33N 39°15' W 076°35'9 8.3
2015-Jan-24 10:31N 39°10' W 076°26'1212.7
2015-Jan-24 09:33N 38°58' W 076°23'75915.4
2015-Jan-22 08:17N 26°38' W 079°44'1723.0
2015-Jan-22 07:34N 26°22' W 079°45'2323.2
2015-Jan-22 06:34N 25°59' W 079°48'13 0.5
2015-Jan-21 03:33N 25°45' W 079°45'1817.8
2015-Jan-21 02:33N 25°57' W 079°31'4919.2
2015-Jan-21 00:00N 26°00' W 078°36'74 4.4 140 / 131017.3 22.017.427.5
2015-Jan-20 07:00N 25°24' W 077°24'   090 / 151018.3 20.415.026.9
2015-Jan-18 00:00N 31°18' W 076°54'27921.5 130 / 141023.0 18.413.127.0
2015-Jan-17 11:00N 35°42' W 075°06'14016.3 030 / 201026.0 6.5 4.410.0
2015-Jan-17 02:24N 37°53' W 076°09'5720.0
2015-Jan-16 23:33N 38°48' W 076°25'1817.6
2015-Jan-16 22:34N 39°06' W 076°24'1010.5
2015-Jan-16 21:33N 39°14' W 076°33'3 3.3
2015-Jan-16 20:33N 39°16' W 076°36'0 0.0
2015-Jan-16 19:33N 39°16' W 076°36'0 0.0
2015-Jan-16 18:33N 39°16' W 076°36'0 0.0
2015-Jan-16 17:33N 39°16' W 076°36'0 0.0
2015-Jan-16 16:33N 39°16' W 076°36'0 0.0
2015-Jan-16 15:30N 39°16' W 076°36'0 0.0
2015-Jan-16 14:33N 39°16' W 076°36'0 0.0
2015-Jan-16 13:33N 39°16' W 076°36'0 0.0
2015-Jan-16 12:33N 39°16' W 076°36'1 0.6
2015-Jan-16 11:34N 39°15' W 076°35'9 9.3
2015-Jan-16 10:34N 39°10' W 076°26'1312.9
2015-Jan-16 09:33N 38°57' W 076°23'1413.8
2015-Jan-16 08:34N 38°44' W 076°26'  

Dump ship's entire track history